createdAt,value
2017-08-16T00:00:19.685Z,19.32
2017-08-16T00:01:07.693Z,19.32
2017-08-16T00:02:01.786Z,19.36
2017-08-16T00:03:01.813Z,19.30
2017-08-16T00:03:50.814Z,19.26
2017-08-16T00:04:38.930Z,19.21
2017-08-16T00:05:26.896Z,19.16
2017-08-16T00:06:21.064Z,19.09
2017-08-16T00:07:26.958Z,19.06
2017-08-16T00:08:27.074Z,19.01
2017-08-16T00:09:21.074Z,18.99
2017-08-16T00:10:21.085Z,18.94
2017-08-16T00:11:16.228Z,18.90
2017-08-16T00:12:11.070Z,18.94
2017-08-16T00:13:05.208Z,18.94
2017-08-16T00:13:53.218Z,18.95
2017-08-16T00:14:41.034Z,18.91
2017-08-16T00:15:30.384Z,18.91
2017-08-16T00:16:25.435Z,18.89
2017-08-16T00:17:19.360Z,18.87
2017-08-16T00:18:14.253Z,18.90
2017-08-16T00:19:03.544Z,18.90
2017-08-16T00:19:51.365Z,18.87
2017-08-16T00:20:45.612Z,18.86
2017-08-16T00:21:39.538Z,18.85
2017-08-16T00:22:27.540Z,18.86
2017-08-16T00:23:16.606Z,18.85
2017-08-16T00:24:05.618Z,18.88
2017-08-16T00:24:54.885Z,18.89
2017-08-16T00:25:54.967Z,18.87
2017-08-16T00:26:48.676Z,18.92
2017-08-16T00:27:36.835Z,18.92
2017-08-16T00:28:36.901Z,18.92
2017-08-16T00:29:37.078Z,18.88
2017-08-16T00:30:31.163Z,18.86
2017-08-16T00:31:31.095Z,18.80
2017-08-16T00:32:25.088Z,18.80
2017-08-16T00:33:26.095Z,18.82
2017-08-16T00:34:26.095Z,18.78
2017-08-16T00:35:15.242Z,18.83
2017-08-16T00:36:04.355Z,18.85
2017-08-16T00:36:59.319Z,18.86
2017-08-16T00:37:53.391Z,18.81
2017-08-16T00:38:47.449Z,18.80
2017-08-16T00:39:42.516Z,18.74
2017-08-16T00:40:36.558Z,18.70
2017-08-16T00:41:36.623Z,18.68
2017-08-16T00:42:30.587Z,18.66
2017-08-16T00:43:19.654Z,18.63
2017-08-16T00:44:14.704Z,18.62
2017-08-16T00:45:08.712Z,18.58
2017-08-16T00:46:08.781Z,18.56
2017-08-16T00:47:03.765Z,18.56
2017-08-16T00:47:58.858Z,18.53
2017-08-16T00:48:58.856Z,18.51
2017-08-16T00:49:53.963Z,18.50
2017-08-16T00:50:48.983Z,18.50
2017-08-16T00:51:49.017Z,18.51
2017-08-16T00:52:44.102Z,18.50
2017-08-16T00:53:39.094Z,18.53
2017-08-16T00:54:39.126Z,18.60
2017-08-16T00:55:33.147Z,18.58
2017-08-16T00:56:28.174Z,18.57
2017-08-16T00:57:23.232Z,18.58
2017-08-16T00:58:18.123Z,18.58
2017-08-16T00:59:06.296Z,18.57
2017-08-16T01:00:00.411Z,18.57
2017-08-16T01:00:54.375Z,18.55
2017-08-16T01:01:49.505Z,18.56
2017-08-16T01:02:43.278Z,18.52
2017-08-16T01:03:37.472Z,18.52
2017-08-16T01:04:25.611Z,18.52
2017-08-16T01:05:19.600Z,18.50
2017-08-16T01:06:14.720Z,18.45
2017-08-16T01:07:08.639Z,18.42
2017-08-16T01:08:08.603Z,18.44
2017-08-16T01:09:02.613Z,18.42
2017-08-16T01:09:51.776Z,18.40
2017-08-16T01:10:46.811Z,18.43
2017-08-16T01:11:40.626Z,18.46
2017-08-16T01:12:40.828Z,18.45
2017-08-16T01:13:29.781Z,18.46
2017-08-16T01:14:18.979Z,18.50
2017-08-16T01:15:08.098Z,18.50
2017-08-16T01:15:57.195Z,18.47
2017-08-16T01:16:45.126Z,18.49
2017-08-16T01:17:34.241Z,18.49
2017-08-16T01:18:29.134Z,18.48
2017-08-16T01:19:29.239Z,18.50
2017-08-16T01:20:24.250Z,18.46
2017-08-16T01:21:19.324Z,18.41
2017-08-16T01:22:19.375Z,18.44
2017-08-16T01:23:14.412Z,18.44
2017-08-16T01:24:08.453Z,18.44
2017-08-16T01:25:02.507Z,18.42
2017-08-16T01:26:02.633Z,18.44
2017-08-16T01:26:51.576Z,18.50
2017-08-16T01:27:40.670Z,18.52
2017-08-16T01:28:34.692Z,18.48
2017-08-16T01:29:29.706Z,18.48
2017-08-16T01:30:23.881Z,18.44
2017-08-16T01:31:11.784Z,18.41
2017-08-16T01:31:59.804Z,18.43
2017-08-16T01:33:00.920Z,18.46
2017-08-16T01:33:55.956Z,18.42
2017-08-16T01:34:49.915Z,18.42
2017-08-16T01:35:39.014Z,18.40
2017-08-16T01:36:33.011Z,18.37
2017-08-16T01:37:28.126Z,18.38
2017-08-16T01:38:28.146Z,18.39
2017-08-16T01:39:23.142Z,18.34
2017-08-16T01:40:17.201Z,18.33
2017-08-16T01:41:06.262Z,18.28
2017-08-16T01:41:54.237Z,18.29
2017-08-16T01:42:42.363Z,18.26
2017-08-16T01:43:36.356Z,18.25
2017-08-16T01:44:37.385Z,18.22
2017-08-16T01:45:38.460Z,18.19
2017-08-16T01:46:27.461Z,18.24
2017-08-16T01:47:15.553Z,18.21
2017-08-16T01:48:03.661Z,18.18
2017-08-16T01:48:51.573Z,18.12
2017-08-16T01:49:39.612Z,18.08
2017-08-16T01:50:33.667Z,18.05
2017-08-16T01:51:22.759Z,18.07
2017-08-16T01:52:10.827Z,18.06
2017-08-16T01:52:58.887Z,18.06
2017-08-16T01:53:47.847Z,18.03
2017-08-16T01:54:36.002Z,18.01
2017-08-16T01:55:23.993Z,18.04
2017-08-16T01:56:12.047Z,18.02
2017-08-16T01:57:07.111Z,18.08
2017-08-16T01:58:07.122Z,18.13
2017-08-16T01:58:55.173Z,18.15
2017-08-16T01:59:50.216Z,18.11
2017-08-16T02:00:50.309Z,18.10
2017-08-16T02:01:38.274Z,18.12
2017-08-16T02:02:27.275Z,18.10
2017-08-16T02:03:15.318Z,18.12
2017-08-16T02:04:04.360Z,18.17
2017-08-16T02:04:58.420Z,18.14
2017-08-16T02:05:52.477Z,18.11
2017-08-16T02:06:41.568Z,18.12
2017-08-16T02:07:29.553Z,18.08
2017-08-16T02:08:23.564Z,18.09
2017-08-16T02:09:11.687Z,18.05
2017-08-16T02:10:00.708Z,17.98
2017-08-16T02:10:48.777Z,17.93
2017-08-16T02:11:36.824Z,17.88
2017-08-16T02:12:25.839Z,17.85
2017-08-16T02:13:13.920Z,17.87
2017-08-16T02:14:07.897Z,17.84
2017-08-16T02:15:01.919Z,17.80
2017-08-16T02:15:49.931Z,17.73
2017-08-16T02:16:38.055Z,17.73
2017-08-16T02:17:26.073Z,17.72
2017-08-16T02:18:14.151Z,17.79
2017-08-16T02:19:03.180Z,17.78
2017-08-16T02:19:52.284Z,17.76
2017-08-16T02:20:40.353Z,17.74
2017-08-16T02:21:28.334Z,17.78
2017-08-16T02:22:16.348Z,17.80
2017-08-16T02:23:05.341Z,17.80
2017-08-16T02:23:53.514Z,17.82
2017-08-16T02:24:41.545Z,17.83
2017-08-16T02:25:30.520Z,17.84
2017-08-16T02:26:18.735Z,17.84
2017-08-16T02:27:06.688Z,17.86
2017-08-16T02:27:55.607Z,17.88
2017-08-16T02:28:43.644Z,17.87
2017-08-16T02:29:31.775Z,17.86
2017-08-16T02:30:25.904Z,17.91
2017-08-16T02:31:14.928Z,17.87
2017-08-16T02:32:02.905Z,17.88
2017-08-16T02:32:51.014Z,17.84
2017-08-16T02:33:39.067Z,17.80
2017-08-16T02:34:28.125Z,17.81
2017-08-16T02:35:16.211Z,17.80
2017-08-16T02:36:04.202Z,17.75
2017-08-16T02:36:53.497Z,17.78
2017-08-16T02:37:41.277Z,17.76
2017-08-16T02:38:29.281Z,17.73
2017-08-16T02:39:18.296Z,17.74
2017-08-16T02:40:06.416Z,17.76
2017-08-16T02:40:54.481Z,17.75
2017-08-16T02:41:43.461Z,17.78
2017-08-16T02:42:31.679Z,17.80
2017-08-16T02:43:19.503Z,17.82
2017-08-16T02:44:20.661Z,17.84
2017-08-16T02:45:14.629Z,17.86
2017-08-16T02:46:15.696Z,17.81
2017-08-16T02:47:15.665Z,17.84
2017-08-16T02:48:04.809Z,17.85
2017-08-16T02:48:52.772Z,17.86
2017-08-16T02:49:41.885Z,17.86
2017-08-16T02:50:29.930Z,17.84
2017-08-16T02:51:23.974Z,17.81
2017-08-16T02:52:12.003Z,17.84
2017-08-16T02:53:00.038Z,17.87
2017-08-16T02:54:00.098Z,17.88
2017-08-16T02:54:55.141Z,17.90
2017-08-16T02:55:55.112Z,17.88
2017-08-16T02:56:50.183Z,17.91
2017-08-16T02:57:45.244Z,17.94
2017-08-16T02:58:45.227Z,17.94
2017-08-16T02:59:40.361Z,17.98
2017-08-16T03:00:35.299Z,18.02
2017-08-16T03:01:35.378Z,18.02
2017-08-16T03:02:30.419Z,18.00
2017-08-16T03:03:25.481Z,18.00
2017-08-16T03:04:26.398Z,17.99
2017-08-16T03:05:26.465Z,17.96
2017-08-16T03:06:26.612Z,17.88
2017-08-16T03:07:21.530Z,17.83
2017-08-16T03:08:15.615Z,17.75
2017-08-16T03:09:15.749Z,17.74
2017-08-16T03:10:09.631Z,17.70
2017-08-16T03:11:04.844Z,17.67
2017-08-16T03:11:59.875Z,17.72
2017-08-16T03:12:59.830Z,17.72
2017-08-16T03:13:47.875Z,17.76
2017-08-16T03:14:36.869Z,17.78
2017-08-16T03:15:30.908Z,17.80
2017-08-16T03:16:25.053Z,17.78
2017-08-16T03:17:13.054Z,17.81
2017-08-16T03:18:07.083Z,17.82
2017-08-16T03:18:56.146Z,17.78
2017-08-16T03:19:45.155Z,17.79
2017-08-16T03:20:33.176Z,17.75
2017-08-16T03:21:21.313Z,17.71
2017-08-16T03:22:09.186Z,17.72
2017-08-16T03:23:03.301Z,17.74
2017-08-16T03:23:57.327Z,17.73
2017-08-16T03:24:46.317Z,17.74
2017-08-16T03:25:35.259Z,17.74
2017-08-16T03:26:24.483Z,17.72
2017-08-16T03:27:12.539Z,17.73
2017-08-16T03:28:00.583Z,17.70
2017-08-16T03:28:48.738Z,17.68
2017-08-16T03:29:37.665Z,17.68
2017-08-16T03:30:25.732Z,17.63
2017-08-16T03:31:14.753Z,17.61
2017-08-16T03:32:03.777Z,17.64
2017-08-16T03:32:58.647Z,17.63
2017-08-16T03:33:53.741Z,17.63
2017-08-16T03:34:41.853Z,17.59
2017-08-16T03:35:29.677Z,17.57
2017-08-16T03:36:19.011Z,17.54
2017-08-16T03:37:06.903Z,17.54
2017-08-16T03:37:54.982Z,17.52
2017-08-16T03:38:44.078Z,17.52
2017-08-16T03:39:31.979Z,17.47
2017-08-16T03:40:20.060Z,17.46
2017-08-16T03:41:15.035Z,17.45
2017-08-16T03:42:10.130Z,17.40
2017-08-16T03:43:04.138Z,17.42
2017-08-16T03:43:58.223Z,17.39
2017-08-16T03:44:52.255Z,17.39
2017-08-16T03:45:40.334Z,17.40
2017-08-16T03:46:29.316Z,17.42
2017-08-16T03:47:17.371Z,17.41
2017-08-16T03:48:05.364Z,17.36
2017-08-16T03:48:54.523Z,17.36
2017-08-16T03:49:43.545Z,17.41
2017-08-16T03:50:43.846Z,17.40
2017-08-16T03:51:37.554Z,17.43
2017-08-16T03:52:38.599Z,17.42
2017-08-16T03:53:38.904Z,17.37
2017-08-16T03:54:33.671Z,17.39
2017-08-16T03:55:33.762Z,17.42
2017-08-16T03:56:21.681Z,17.42
2017-08-16T03:57:11.041Z,17.39
2017-08-16T03:58:11.927Z,17.43
2017-08-16T03:59:05.851Z,17.44
2017-08-16T03:59:59.904Z,17.42
2017-08-16T04:00:54.963Z,17.38
2017-08-16T04:01:49.007Z,17.38
2017-08-16T04:02:43.008Z,17.40
2017-08-16T04:03:38.018Z,17.43
2017-08-16T04:04:32.119Z,17.48
2017-08-16T04:05:32.128Z,17.54
2017-08-16T04:06:21.464Z,17.57
2017-08-16T04:07:10.195Z,17.56
2017-08-16T04:08:11.479Z,17.54
2017-08-16T04:09:11.288Z,17.53
2017-08-16T04:10:11.323Z,17.53
2017-08-16T04:11:11.341Z,17.54
2017-08-16T04:12:11.444Z,17.54
2017-08-16T04:13:05.442Z,17.54
2017-08-16T04:13:54.510Z,17.54
2017-08-16T04:14:49.542Z,17.55
2017-08-16T04:15:37.562Z,17.53
2017-08-16T04:16:31.623Z,17.49
2017-08-16T04:17:25.708Z,17.48
2017-08-16T04:18:25.678Z,17.44
2017-08-16T04:19:25.716Z,17.40
2017-08-16T04:20:25.772Z,17.38
2017-08-16T04:21:25.831Z,17.30
2017-08-16T04:22:26.845Z,17.24
2017-08-16T04:23:21.891Z,17.18
2017-08-16T04:24:15.910Z,17.14
2017-08-16T04:25:15.977Z,17.09
2017-08-16T04:26:11.114Z,17.00
2017-08-16T04:27:06.012Z,16.98
2017-08-16T04:28:00.098Z,16.93
2017-08-16T04:28:54.114Z,16.92
2017-08-16T04:29:49.142Z,16.89
2017-08-16T04:30:38.231Z,16.92
2017-08-16T04:31:38.458Z,16.94
2017-08-16T04:32:38.250Z,16.88
2017-08-16T04:33:38.596Z,16.86
2017-08-16T04:34:38.359Z,16.83
2017-08-16T04:35:33.397Z,16.83
2017-08-16T04:36:33.435Z,16.93
2017-08-16T04:37:28.513Z,16.93
2017-08-16T04:38:23.554Z,16.84
2017-08-16T04:39:23.540Z,16.85
2017-08-16T04:40:18.521Z,16.84
2017-08-16T04:41:12.651Z,16.85
2017-08-16T04:42:07.594Z,16.90
2017-08-16T04:42:55.730Z,16.89
2017-08-16T04:43:49.917Z,16.92
2017-08-16T04:44:49.838Z,16.94
2017-08-16T04:45:45.116Z,16.90
2017-08-16T04:46:38.849Z,16.96
2017-08-16T04:47:27.903Z,16.94
2017-08-16T04:48:16.950Z,16.96
2017-08-16T04:49:05.042Z,16.91
2017-08-16T04:49:53.177Z,16.87
2017-08-16T04:50:41.094Z,16.84
2017-08-16T04:51:35.102Z,16.76
2017-08-16T04:52:24.186Z,16.78
2017-08-16T04:53:12.420Z,16.83
2017-08-16T04:54:01.447Z,16.73
2017-08-16T04:54:49.340Z,16.79
2017-08-16T04:55:37.355Z,16.75
2017-08-16T04:56:26.629Z,16.72
2017-08-16T04:57:14.499Z,16.70
2017-08-16T04:58:02.559Z,16.69
2017-08-16T04:58:56.527Z,16.66
2017-08-16T04:59:56.759Z,16.66
2017-08-16T05:00:50.570Z,16.69
2017-08-16T05:01:44.617Z,16.72
2017-08-16T05:02:38.650Z,16.73
2017-08-16T05:03:26.679Z,16.73
2017-08-16T05:04:20.730Z,16.69
2017-08-16T05:05:20.806Z,16.64
2017-08-16T05:06:16.091Z,16.70
2017-08-16T05:07:10.077Z,16.67
2017-08-16T05:08:10.180Z,16.69
2017-08-16T05:09:05.192Z,16.65
2017-08-16T05:10:05.289Z,16.66
2017-08-16T05:11:05.291Z,16.68
2017-08-16T05:12:05.343Z,16.68
2017-08-16T05:12:59.227Z,16.72
2017-08-16T05:13:59.336Z,16.74
2017-08-16T05:14:48.442Z,16.85
2017-08-16T05:15:42.473Z,16.90
2017-08-16T05:16:36.249Z,17.02
2017-08-16T05:17:30.570Z,17.15
2017-08-16T05:18:24.364Z,17.26
2017-08-16T05:19:19.470Z,17.33
2017-08-16T05:20:13.458Z,17.36
2017-08-16T05:21:07.649Z,17.48
2017-08-16T05:22:02.586Z,17.50
2017-08-16T05:22:51.569Z,17.52
2017-08-16T05:23:45.589Z,17.59
2017-08-16T05:24:33.712Z,17.54
2017-08-16T05:25:28.884Z,17.52
2017-08-16T05:26:28.805Z,17.50
2017-08-16T05:27:28.741Z,17.59
2017-08-16T05:28:29.070Z,17.58
2017-08-16T05:29:28.917Z,17.58
2017-08-16T05:30:28.954Z,17.67
2017-08-16T05:31:24.107Z,17.86
2017-08-16T05:32:13.193Z,18.00
2017-08-16T05:33:13.284Z,18.04
2017-08-16T05:34:07.283Z,18.10
2017-08-16T05:35:07.380Z,18.17
2017-08-16T05:36:01.350Z,18.39
2017-08-16T05:36:49.439Z,18.51
2017-08-16T05:37:49.487Z,18.72
2017-08-16T05:38:49.460Z,18.66
2017-08-16T05:39:43.506Z,18.55
2017-08-16T05:40:32.538Z,18.49
2017-08-16T05:41:26.554Z,18.40
2017-08-16T05:42:15.585Z,18.41
2017-08-16T05:43:15.689Z,18.43
2017-08-16T05:44:21.761Z,18.44
2017-08-16T05:45:16.858Z,18.45
2017-08-16T05:46:10.817Z,18.59
2017-08-16T05:47:10.869Z,18.82
2017-08-16T05:48:04.991Z,19.06
2017-08-16T05:49:05.930Z,19.38
2017-08-16T05:50:06.954Z,19.62
2017-08-16T05:51:01.012Z,19.65
2017-08-16T05:51:49.013Z,19.67
2017-08-16T05:52:43.144Z,19.85
2017-08-16T05:53:37.098Z,19.83
2017-08-16T05:54:26.277Z,19.77
2017-08-16T05:55:26.204Z,19.62
2017-08-16T05:56:15.397Z,19.68
2017-08-16T05:57:09.379Z,19.85
2017-08-16T05:58:09.350Z,19.99
2017-08-16T05:58:57.464Z,20.27
2017-08-16T05:59:46.432Z,20.52
2017-08-16T06:00:34.597Z,20.80
2017-08-16T06:01:23.663Z,20.92
2017-08-16T06:02:23.672Z,21.10
2017-08-16T06:03:24.861Z,20.94
2017-08-16T06:04:18.847Z,20.99
2017-08-16T06:05:07.860Z,20.85
2017-08-16T06:06:02.826Z,20.15
2017-08-16T06:06:56.927Z,20.16
2017-08-16T06:07:51.018Z,20.03
2017-08-16T06:08:44.958Z,19.82
2017-08-16T06:09:33.062Z,19.42
2017-08-16T06:10:28.051Z,18.94
2017-08-16T06:11:17.144Z,18.79
2017-08-16T06:12:12.233Z,18.70
2017-08-16T06:13:00.185Z,18.78
2017-08-16T06:13:49.255Z,18.62
2017-08-16T06:14:44.338Z,18.39
2017-08-16T06:15:32.388Z,18.09
2017-08-16T06:16:21.473Z,18.02
2017-08-16T06:17:21.671Z,18.26
2017-08-16T06:18:16.598Z,17.95
2017-08-16T06:19:10.617Z,17.54
2017-08-16T06:19:58.664Z,17.50
2017-08-16T06:20:52.675Z,17.36
2017-08-16T06:21:41.694Z,17.06
2017-08-16T06:22:35.794Z,17.04
2017-08-16T06:23:29.888Z,17.00
2017-08-16T06:24:18.837Z,16.97
2017-08-16T06:25:06.961Z,17.12
2017-08-16T06:26:02.034Z,17.04
2017-08-16T06:26:57.011Z,17.21
2017-08-16T06:27:51.041Z,17.36
2017-08-16T06:28:45.120Z,17.70
2017-08-16T06:29:40.211Z,18.09
2017-08-16T06:30:34.238Z,18.38
2017-08-16T06:31:22.301Z,18.39
2017-08-16T06:32:17.345Z,18.36
2017-08-16T06:33:18.668Z,18.23
2017-08-16T06:34:13.435Z,18.30
2017-08-16T06:35:07.471Z,18.87
2017-08-16T06:36:08.569Z,19.72
2017-08-16T06:37:03.582Z,20.90
2017-08-16T06:38:03.665Z,21.88
2017-08-16T06:38:52.698Z,21.74
2017-08-16T06:39:52.636Z,21.94
2017-08-16T06:40:41.715Z,21.49
2017-08-16T06:41:36.881Z,22.30
2017-08-16T06:42:24.917Z,22.62
2017-08-16T06:43:24.990Z,21.91
2017-08-16T06:44:19.006Z,21.34
2017-08-16T06:45:12.956Z,21.89
2017-08-16T06:46:02.126Z,22.52
2017-08-16T06:46:56.102Z,22.76
2017-08-16T06:47:57.168Z,22.35
2017-08-16T06:48:51.208Z,22.21
2017-08-16T06:49:51.330Z,22.88
2017-08-16T06:50:39.388Z,22.82
2017-08-16T06:51:28.421Z,22.82
2017-08-16T06:52:16.475Z,22.82
2017-08-16T06:53:05.509Z,23.31
2017-08-16T06:54:00.639Z,23.69
2017-08-16T06:54:48.673Z,23.75
2017-08-16T06:55:48.740Z,23.66
2017-08-16T06:56:42.676Z,23.90
2017-08-16T06:57:31.841Z,23.91
2017-08-16T06:58:19.835Z,24.00
2017-08-16T06:59:14.888Z,23.53
2017-08-16T07:00:08.999Z,24.32
2017-08-16T07:00:58.118Z,24.18
2017-08-16T07:01:52.155Z,24.13
2017-08-16T07:02:46.092Z,24.06
2017-08-16T07:03:40.254Z,23.83
2017-08-16T07:04:40.226Z,23.34
2017-08-16T07:05:40.335Z,22.97
2017-08-16T07:06:35.414Z,23.02
2017-08-16T07:07:29.401Z,22.77
2017-08-16T07:08:24.484Z,23.43
2017-08-16T07:09:18.475Z,23.55
2017-08-16T07:10:07.555Z,23.50
2017-08-16T07:11:02.606Z,23.44
2017-08-16T07:11:51.746Z,23.32
2017-08-16T07:12:46.677Z,23.54
2017-08-16T07:13:40.761Z,23.44
2017-08-16T07:14:40.823Z,23.74
2017-08-16T07:15:29.863Z,24.44
2017-08-16T07:16:24.988Z,24.60
2017-08-16T07:17:18.925Z,23.92
2017-08-16T07:18:13.114Z,23.63
2017-08-16T07:19:08.136Z,22.89
2017-08-16T07:20:08.173Z,22.26
2017-08-16T07:20:57.251Z,22.25
2017-08-16T07:21:46.282Z,22.42
2017-08-16T07:22:40.381Z,22.84
2017-08-16T07:23:35.395Z,23.71
2017-08-16T07:24:24.522Z,23.91
2017-08-16T07:25:13.579Z,24.10
2017-08-16T07:26:02.592Z,24.42
2017-08-16T07:26:56.711Z,25.02
2017-08-16T07:27:45.720Z,25.41
2017-08-16T07:28:45.786Z,24.65
2017-08-16T07:29:39.757Z,24.19
2017-08-16T07:30:33.863Z,24.14
2017-08-16T07:31:28.970Z,24.79
2017-08-16T07:32:23.006Z,24.51
2017-08-16T07:33:22.991Z,24.43
2017-08-16T07:34:12.108Z,24.11
2017-08-16T07:35:06.151Z,23.91
2017-08-16T07:36:01.293Z,23.18
2017-08-16T07:36:49.258Z,22.85
2017-08-16T07:37:43.389Z,23.06
2017-08-16T07:38:38.429Z,23.53
2017-08-16T07:39:32.497Z,23.03
2017-08-16T07:40:21.540Z,22.88
2017-08-16T07:41:15.530Z,22.89
2017-08-16T07:42:15.603Z,22.87
2017-08-16T07:43:15.672Z,22.72
2017-08-16T07:44:04.723Z,22.68
2017-08-16T07:44:58.737Z,22.20
2017-08-16T07:45:52.874Z,21.44
2017-08-16T07:46:46.929Z,21.36
2017-08-16T07:47:40.931Z,21.14
2017-08-16T07:48:36.053Z,21.05
2017-08-16T07:49:24.129Z,21.22
2017-08-16T07:50:19.125Z,21.30
2017-08-16T07:51:19.123Z,21.80
2017-08-16T07:52:13.194Z,22.55
2017-08-16T07:53:08.332Z,22.75
2017-08-16T07:54:03.371Z,22.89
2017-08-16T07:54:58.486Z,22.78
2017-08-16T07:55:53.547Z,23.07
2017-08-16T07:56:42.513Z,22.96
2017-08-16T07:57:31.565Z,23.32
2017-08-16T07:58:19.626Z,23.45
2017-08-16T07:59:19.737Z,22.94
2017-08-16T08:00:13.719Z,22.74
2017-08-16T08:01:13.866Z,22.87
2017-08-16T08:02:01.877Z,22.86
2017-08-16T08:02:50.923Z,23.19
2017-08-16T08:03:45.963Z,23.64
2017-08-16T08:04:46.047Z,24.26
2017-08-16T08:05:40.179Z,24.43
2017-08-16T08:06:40.103Z,24.83
2017-08-16T08:07:29.206Z,25.42
2017-08-16T08:08:24.245Z,25.67
2017-08-16T08:09:24.273Z,26.14
2017-08-16T08:10:19.325Z,26.34
2017-08-16T08:11:13.464Z,26.14
2017-08-16T08:12:07.509Z,25.77
2017-08-16T08:12:56.440Z,25.63
2017-08-16T08:13:50.550Z,25.86
2017-08-16T08:14:39.659Z,26.41
2017-08-16T08:15:33.686Z,26.16
2017-08-16T08:16:28.723Z,26.13
2017-08-16T08:17:17.725Z,26.57
2017-08-16T08:18:11.857Z,26.83
2017-08-16T08:19:11.906Z,25.86
2017-08-16T08:20:07.004Z,25.67
2017-08-16T08:21:07.016Z,26.02
2017-08-16T08:22:02.237Z,25.27
2017-08-16T08:22:57.174Z,25.21
2017-08-16T08:23:46.201Z,25.60
2017-08-16T08:24:46.349Z,25.56
2017-08-16T08:25:40.344Z,25.51
2017-08-16T08:26:40.433Z,25.63
2017-08-16T08:27:29.472Z,25.79
2017-08-16T08:28:23.575Z,25.69
2017-08-16T08:29:23.535Z,25.71
2017-08-16T08:30:17.661Z,26.16
2017-08-16T08:31:06.774Z,25.91
2017-08-16T08:31:55.799Z,24.74
2017-08-16T08:32:50.969Z,24.75
2017-08-16T08:33:50.891Z,25.43
2017-08-16T08:34:39.843Z,25.84
2017-08-16T08:35:28.988Z,26.16
2017-08-16T08:36:23.010Z,25.61
2017-08-16T08:37:17.075Z,25.29
2017-08-16T08:38:06.131Z,25.27
2017-08-16T08:38:54.287Z,25.56
2017-08-16T08:39:54.379Z,26.24
2017-08-16T08:40:42.425Z,26.88
2017-08-16T08:41:36.417Z,27.27
2017-08-16T08:42:30.491Z,27.18
2017-08-16T08:43:25.547Z,26.70
2017-08-16T08:44:25.620Z,26.85
2017-08-16T08:45:19.675Z,26.92
2017-08-16T08:46:08.823Z,27.04
2017-08-16T08:47:03.857Z,26.73
2017-08-16T08:47:51.914Z,26.63
2017-08-16T08:48:40.946Z,26.62
2017-08-16T08:49:36.034Z,26.00
2017-08-16T08:50:31.096Z,26.38
2017-08-16T08:51:25.123Z,26.05
2017-08-16T08:52:19.165Z,25.72
2017-08-16T08:53:13.199Z,25.41
2017-08-16T08:54:02.277Z,25.34
2017-08-16T08:54:56.404Z,25.60
2017-08-16T08:55:50.440Z,25.89
2017-08-16T08:56:39.466Z,25.99
2017-08-16T08:57:33.573Z,26.43
2017-08-16T08:58:28.621Z,27.13
2017-08-16T08:59:17.698Z,27.62
2017-08-16T09:00:11.767Z,27.66
2017-08-16T09:01:05.807Z,27.65
2017-08-16T09:02:00.893Z,27.68
2017-08-16T09:03:01.911Z,27.42
2017-08-16T09:03:51.015Z,27.32
2017-08-16T09:04:51.148Z,27.48
2017-08-16T09:05:51.155Z,27.62
2017-08-16T09:06:46.229Z,27.80
2017-08-16T09:07:40.324Z,27.83
2017-08-16T09:08:29.246Z,28.07
2017-08-16T09:09:24.392Z,27.95
2017-08-16T09:10:19.604Z,28.10
2017-08-16T09:11:07.587Z,28.05
2017-08-16T09:12:07.625Z,27.28
2017-08-16T09:13:01.632Z,27.01
2017-08-16T09:13:50.755Z,26.92
2017-08-16T09:14:50.795Z,27.10
2017-08-16T09:15:44.976Z,27.32
2017-08-16T09:16:38.953Z,27.43
2017-08-16T09:17:33.073Z,27.38
2017-08-16T09:18:27.051Z,27.23
2017-08-16T09:19:16.162Z,27.61
2017-08-16T09:20:10.174Z,27.66
2017-08-16T09:21:11.344Z,27.93
2017-08-16T09:22:06.418Z,28.43
2017-08-16T09:22:55.404Z,28.00
2017-08-16T09:23:49.480Z,26.92
2017-08-16T09:24:38.572Z,26.91
2017-08-16T09:25:32.620Z,26.66
2017-08-16T09:26:26.755Z,26.46
2017-08-16T09:27:20.770Z,26.69
2017-08-16T09:28:14.768Z,26.42
2017-08-16T09:29:14.899Z,25.85
2017-08-16T09:30:08.949Z,25.10
2017-08-16T09:31:04.016Z,25.05
2017-08-16T09:32:04.116Z,25.50
2017-08-16T09:32:59.117Z,25.74
2017-08-16T09:33:47.162Z,25.86
2017-08-16T09:34:42.219Z,26.26
2017-08-16T09:35:36.240Z,26.64
2017-08-16T09:36:30.413Z,26.72
2017-08-16T09:37:19.518Z,26.75
2017-08-16T09:38:13.537Z,26.70
2017-08-16T09:39:07.581Z,26.10
2017-08-16T09:40:02.606Z,25.61
2017-08-16T09:40:57.760Z,24.66
2017-08-16T09:41:46.722Z,24.72
2017-08-16T09:42:40.843Z,24.86
2017-08-16T09:43:28.841Z,24.88
2017-08-16T09:44:22.954Z,25.01
2017-08-16T09:45:17.022Z,25.08
2017-08-16T09:46:06.062Z,25.24
2017-08-16T09:47:01.113Z,25.64
2017-08-16T09:47:55.277Z,25.74
2017-08-16T09:48:50.281Z,26.03
2017-08-16T09:49:44.338Z,26.22
2017-08-16T09:50:39.370Z,25.91
2017-08-16T09:51:28.395Z,25.47
2017-08-16T09:52:17.484Z,25.02
2017-08-16T09:53:12.598Z,25.10
2017-08-16T09:54:06.635Z,25.38
2017-08-16T09:55:06.627Z,25.77
2017-08-16T09:56:00.785Z,25.71
2017-08-16T09:56:55.823Z,25.74
2017-08-16T09:57:49.917Z,26.20
2017-08-16T09:58:44.107Z,26.12
2017-08-16T09:59:44.025Z,26.33
2017-08-16T10:00:32.045Z,26.46
2017-08-16T10:01:26.096Z,26.22
2017-08-16T10:02:21.207Z,26.09
2017-08-16T10:03:10.219Z,26.31
2017-08-16T10:04:04.310Z,26.27
2017-08-16T10:04:58.392Z,26.22
2017-08-16T10:05:47.415Z,26.26
2017-08-16T10:06:36.540Z,26.35
2017-08-16T10:07:25.580Z,26.42
2017-08-16T10:08:14.744Z,26.29
2017-08-16T10:09:08.730Z,26.30
2017-08-16T10:10:02.769Z,26.24
2017-08-16T10:10:50.983Z,26.43
2017-08-16T10:11:44.878Z,26.83
2017-08-16T10:12:44.917Z,27.24
2017-08-16T10:13:44.984Z,26.87
2017-08-16T10:14:33.134Z,26.68
2017-08-16T10:15:27.191Z,26.37
2017-08-16T10:16:22.211Z,26.10
2017-08-16T10:17:22.353Z,26.16
2017-08-16T10:18:16.443Z,26.31
2017-08-16T10:19:11.458Z,26.41
2017-08-16T10:20:11.472Z,26.76
2017-08-16T10:21:06.549Z,26.87
2017-08-16T10:21:55.583Z,26.78
2017-08-16T10:22:55.611Z,26.14
2017-08-16T10:23:49.775Z,25.49
2017-08-16T10:24:43.824Z,25.50
2017-08-16T10:25:37.891Z,25.74
2017-08-16T10:26:31.953Z,25.48
2017-08-16T10:27:26.941Z,25.15
2017-08-16T10:28:22.028Z,25.31
2017-08-16T10:29:11.049Z,25.72
2017-08-16T10:30:06.247Z,26.26
2017-08-16T10:30:55.518Z,26.66
2017-08-16T10:31:55.324Z,26.79
2017-08-16T10:32:44.387Z,26.92
2017-08-16T10:33:32.415Z,27.04
2017-08-16T10:34:39.428Z,27.48
2017-08-16T10:35:39.555Z,26.96
2017-08-16T10:36:34.626Z,27.04
2017-08-16T10:37:28.739Z,26.90
2017-08-16T10:38:23.803Z,27.05
2017-08-16T10:39:17.770Z,26.72
2017-08-16T10:40:11.863Z,26.89
2017-08-16T10:41:05.958Z,26.98
2017-08-16T10:41:54.020Z,27.10
2017-08-16T10:42:41.994Z,27.15
2017-08-16T10:43:36.163Z,26.98
2017-08-16T10:44:31.167Z,27.08
2017-08-16T10:45:31.232Z,27.07
2017-08-16T10:46:26.369Z,27.08
2017-08-16T10:47:26.488Z,27.26
2017-08-16T10:48:21.463Z,27.45
2017-08-16T10:49:15.427Z,27.41
2017-08-16T10:50:15.528Z,27.38
2017-08-16T10:51:09.665Z,27.57
2017-08-16T10:51:58.646Z,27.91
2017-08-16T10:52:46.813Z,28.18
2017-08-16T10:53:41.881Z,28.62
2017-08-16T10:54:36.939Z,28.81
2017-08-16T10:55:26.030Z,28.37
2017-08-16T10:56:21.136Z,27.99
2017-08-16T10:57:21.168Z,27.67
2017-08-16T10:58:15.283Z,27.76
2017-08-16T10:59:10.314Z,27.92
2017-08-16T11:00:04.275Z,27.81
2017-08-16T11:00:59.453Z,27.41
2017-08-16T11:01:47.495Z,27.11
2017-08-16T11:02:47.519Z,26.82
2017-08-16T11:03:41.805Z,26.23
2017-08-16T11:04:30.676Z,25.99
2017-08-16T11:05:24.755Z,25.31
2017-08-16T11:06:18.814Z,25.38
2017-08-16T11:07:12.882Z,25.43
2017-08-16T11:08:01.959Z,25.28
2017-08-16T11:08:51.017Z,25.20
2017-08-16T11:09:45.032Z,25.52
2017-08-16T11:10:33.240Z,25.96
2017-08-16T11:11:27.261Z,26.55
2017-08-16T11:12:15.209Z,26.82
2017-08-16T11:13:04.324Z,27.04
2017-08-16T11:13:58.345Z,27.01
2017-08-16T11:14:47.521Z,27.53
2017-08-16T11:15:42.002Z,28.11
2017-08-16T11:16:35.705Z,28.28
2017-08-16T11:17:30.728Z,28.11
2017-08-16T11:18:18.759Z,27.94
2017-08-16T11:19:13.089Z,27.99
2017-08-16T11:20:12.932Z,27.67
2017-08-16T11:21:06.899Z,27.52
2017-08-16T11:22:00.983Z,27.26
2017-08-16T11:22:56.118Z,27.52
2017-08-16T11:23:50.229Z,27.74
2017-08-16T11:24:45.236Z,27.70
2017-08-16T11:25:40.385Z,27.06
2017-08-16T11:26:40.314Z,26.75
2017-08-16T11:27:29.370Z,26.57
2017-08-16T11:28:18.483Z,26.62